sensor_id;sensor_type;location;lat;lon;timestamp;P1;durP1;ratioP1;P2;durP2;ratioP2
79454;SDS011;68900;52.134;5.420;2024-03-07T00:00:29;30.63;;;14.73;;
79454;SDS011;68900;52.134;5.420;2024-03-07T00:02:55;27.88;;;13.10;;
79454;SDS011;68900;52.134;5.420;2024-03-07T00:05:22;30.40;;;14.00;;
79454;SDS011;68900;52.134;5.420;2024-03-07T00:07:52;27.55;;;13.73;;
79454;SDS011;68900;52.134;5.420;2024-03-07T00:10:20;30.35;;;13.57;;
79454;SDS011;68900;52.134;5.420;2024-03-07T00:12:47;30.95;;;14.25;;
79454;SDS011;68900;52.134;5.420;2024-03-07T00:15:17;28.25;;;13.18;;
79454;SDS011;68900;52.134;5.420;2024-03-07T00:17:44;28.73;;;13.38;;
79454;SDS011;68900;52.134;5.420;2024-03-07T00:20:11;29.10;;;14.13;;
79454;SDS011;68900;52.134;5.420;2024-03-07T00:22:42;31.60;;;13.35;;
79454;SDS011;68900;52.134;5.420;2024-03-07T00:25:09;27.88;;;13.98;;
79454;SDS011;68900;52.134;5.420;2024-03-07T00:27:37;26.95;;;13.55;;
79454;SDS011;68900;52.134;5.420;2024-03-07T00:30:07;32.80;;;14.13;;
79454;SDS011;68900;52.134;5.420;2024-03-07T00:32:47;32.60;;;13.73;;
79454;SDS011;68900;52.134;5.420;2024-03-07T00:35:15;30.30;;;14.30;;
79454;SDS011;68900;52.134;5.420;2024-03-07T00:37:41;31.02;;;14.25;;
79454;SDS011;68900;52.134;5.420;2024-03-07T00:40:11;31.38;;;14.98;;
79454;SDS011;68900;52.134;5.420;2024-03-07T00:42:38;32.75;;;15.18;;
79454;SDS011;68900;52.134;5.420;2024-03-07T00:45:05;29.25;;;14.52;;
79454;SDS011;68900;52.134;5.420;2024-03-07T00:47:32;29.70;;;14.75;;
79454;SDS011;68900;52.134;5.420;2024-03-07T00:49:59;33.22;;;15.00;;
79454;SDS011;68900;52.134;5.420;2024-03-07T00:52:26;33.33;;;16.20;;
79454;SDS011;68900;52.134;5.420;2024-03-07T00:54:53;32.67;;;15.30;;
79454;SDS011;68900;52.134;5.420;2024-03-07T00:57:22;28.48;;;14.43;;
79454;SDS011;68900;52.134;5.420;2024-03-07T00:59:49;32.85;;;14.77;;
79454;SDS011;68900;52.134;5.420;2024-03-07T01:02:16;32.83;;;14.43;;
79454;SDS011;68900;52.134;5.420;2024-03-07T01:04:43;29.70;;;14.20;;
79454;SDS011;68900;52.134;5.420;2024-03-07T01:07:10;35.97;;;15.50;;
79454;SDS011;68900;52.134;5.420;2024-03-07T01:09:37;30.08;;;13.95;;
79454;SDS011;68900;52.134;5.420;2024-03-07T01:12:03;28.85;;;14.27;;
79454;SDS011;68900;52.134;5.420;2024-03-07T01:14:32;29.95;;;13.85;;
79454;SDS011;68900;52.134;5.420;2024-03-07T01:16:58;34.00;;;14.45;;
79454;SDS011;68900;52.134;5.420;2024-03-07T01:19:24;32.28;;;14.57;;
79454;SDS011;68900;52.134;5.420;2024-03-07T01:21:51;34.75;;;15.38;;
79454;SDS011;68900;52.134;5.420;2024-03-07T01:24:18;35.00;;;13.93;;
79454;SDS011;68900;52.134;5.420;2024-03-07T01:26:46;29.10;;;13.65;;
79454;SDS011;68900;52.134;5.420;2024-03-07T01:29:14;29.13;;;14.18;;
79454;SDS011;68900;52.134;5.420;2024-03-07T01:31:40;30.92;;;14.20;;
79454;SDS011;68900;52.134;5.420;2024-03-07T01:34:10;34.10;;;14.23;;
79454;SDS011;68900;52.134;5.420;2024-03-07T01:36:39;28.05;;;13.45;;
79454;SDS011;68900;52.134;5.420;2024-03-07T01:39:08;33.75;;;15.13;;
79454;SDS011;68900;52.134;5.420;2024-03-07T01:41:39;33.30;;;14.85;;
79454;SDS011;68900;52.134;5.420;2024-03-07T01:44:06;30.80;;;14.40;;
79454;SDS011;68900;52.134;5.420;2024-03-07T01:46:33;32.75;;;14.52;;
79454;SDS011;68900;52.134;5.420;2024-03-07T01:49:00;32.53;;;14.02;;
79454;SDS011;68900;52.134;5.420;2024-03-07T01:51:27;31.08;;;14.00;;
79454;SDS011;68900;52.134;5.420;2024-03-07T01:53:54;32.53;;;14.40;;
79454;SDS011;68900;52.134;5.420;2024-03-07T01:56:20;34.58;;;14.27;;
79454;SDS011;68900;52.134;5.420;2024-03-07T01:58:48;30.60;;;14.07;;
79454;SDS011;68900;52.134;5.420;2024-03-07T02:01:16;32.50;;;14.63;;
79454;SDS011;68900;52.134;5.420;2024-03-07T02:03:43;32.83;;;15.40;;
79454;SDS011;68900;52.134;5.420;2024-03-07T02:06:10;33.67;;;14.68;;
79454;SDS011;68900;52.134;5.420;2024-03-07T02:08:38;32.20;;;14.93;;
79454;SDS011;68900;52.134;5.420;2024-03-07T02:11:05;33.05;;;14.98;;
79454;SDS011;68900;52.134;5.420;2024-03-07T02:13:31;32.47;;;15.15;;
79454;SDS011;68900;52.134;5.420;2024-03-07T02:15:58;34.97;;;15.20;;
79454;SDS011;68900;52.134;5.420;2024-03-07T02:18:24;31.27;;;14.38;;
79454;SDS011;68900;52.134;5.420;2024-03-07T02:20:52;36.85;;;16.15;;
79454;SDS011;68900;52.134;5.420;2024-03-07T02:23:19;39.95;;;16.02;;
79454;SDS011;68900;52.134;5.420;2024-03-07T02:25:45;34.60;;;15.43;;
79454;SDS011;68900;52.134;5.420;2024-03-07T02:28:12;29.60;;;13.82;;
79454;SDS011;68900;52.134;5.420;2024-03-07T02:30:41;31.55;;;15.57;;
79454;SDS011;68900;52.134;5.420;2024-03-07T02:33:31;33.70;;;15.25;;
79454;SDS011;68900;52.134;5.420;2024-03-07T02:35:58;35.30;;;15.55;;
79454;SDS011;68900;52.134;5.420;2024-03-07T02:38:25;33.58;;;15.30;;
79454;SDS011;68900;52.134;5.420;2024-03-07T02:40:51;37.72;;;15.32;;
79454;SDS011;68900;52.134;5.420;2024-03-07T02:43:18;34.38;;;15.90;;
79454;SDS011;68900;52.134;5.420;2024-03-07T02:45:44;36.97;;;15.40;;
79454;SDS011;68900;52.134;5.420;2024-03-07T02:48:11;31.90;;;15.13;;
79454;SDS011;68900;52.134;5.420;2024-03-07T02:50:37;34.28;;;14.85;;
79454;SDS011;68900;52.134;5.420;2024-03-07T02:53:04;34.25;;;15.50;;
79454;SDS011;68900;52.134;5.420;2024-03-07T02:55:31;35.10;;;16.10;;
79454;SDS011;68900;52.134;5.420;2024-03-07T02:58:01;35.40;;;14.77;;
79454;SDS011;68900;52.134;5.420;2024-03-07T03:00:27;29.10;;;13.88;;
79454;SDS011;68900;52.134;5.420;2024-03-07T03:02:56;34.15;;;15.57;;
79454;SDS011;68900;52.134;5.420;2024-03-07T03:05:23;38.92;;;15.23;;
79454;SDS011;68900;52.134;5.420;2024-03-07T03:07:50;33.45;;;15.30;;
79454;SDS011;68900;52.134;5.420;2024-03-07T03:10:21;34.55;;;15.60;;
79454;SDS011;68900;52.134;5.420;2024-03-07T03:12:57;33.65;;;15.10;;
79454;SDS011;68900;52.134;5.420;2024-03-07T03:15:26;30.08;;;14.52;;
79454;SDS011;68900;52.134;5.420;2024-03-07T03:17:52;32.25;;;14.50;;
79454;SDS011;68900;52.134;5.420;2024-03-07T03:20:19;33.83;;;14.43;;
79454;SDS011;68900;52.134;5.420;2024-03-07T03:22:52;35.17;;;15.40;;
79454;SDS011;68900;52.134;5.420;2024-03-07T03:25:42;32.63;;;14.45;;
79454;SDS011;68900;52.134;5.420;2024-03-07T03:28:09;32.53;;;14.57;;
79454;SDS011;68900;52.134;5.420;2024-03-07T03:30:37;32.60;;;14.27;;
79454;SDS011;68900;52.134;5.420;2024-03-07T03:33:04;32.33;;;14.52;;
79454;SDS011;68900;52.134;5.420;2024-03-07T03:35:33;30.02;;;14.32;;
79454;SDS011;68900;52.134;5.420;2024-03-07T03:38:03;30.58;;;15.02;;
79454;SDS011;68900;52.134;5.420;2024-03-07T03:40:29;33.25;;;14.57;;
79454;SDS011;68900;52.134;5.420;2024-03-07T03:42:56;33.25;;;14.18;;
79454;SDS011;68900;52.134;5.420;2024-03-07T03:45:23;28.13;;;13.18;;
79454;SDS011;68900;52.134;5.420;2024-03-07T03:47:51;32.30;;;14.80;;
79454;SDS011;68900;52.134;5.420;2024-03-07T03:50:18;32.80;;;14.57;;
79454;SDS011;68900;52.134;5.420;2024-03-07T03:52:45;31.50;;;14.80;;
79454;SDS011;68900;52.134;5.420;2024-03-07T03:55:14;27.20;;;13.13;;
79454;SDS011;68900;52.134;5.420;2024-03-07T03:57:42;28.35;;;13.45;;
79454;SDS011;68900;52.134;5.420;2024-03-07T04:00:10;28.80;;;13.70;;
79454;SDS011;68900;52.134;5.420;2024-03-07T04:05:20;36.38;;;15.40;;
79454;SDS011;68900;52.134;5.420;2024-03-07T04:07:48;30.75;;;13.98;;
79454;SDS011;68900;52.134;5.420;2024-03-07T04:10:15;31.92;;;14.85;;
79454;SDS011;68900;52.134;5.420;2024-03-07T04:12:43;30.70;;;13.93;;
79454;SDS011;68900;52.134;5.420;2024-03-07T04:15:11;28.35;;;14.20;;
79454;SDS011;68900;52.134;5.420;2024-03-07T04:17:39;31.35;;;14.40;;
79454;SDS011;68900;52.134;5.420;2024-03-07T04:20:06;29.50;;;13.82;;
79454;SDS011;68900;52.134;5.420;2024-03-07T04:22:39;33.38;;;13.80;;
79454;SDS011;68900;52.134;5.420;2024-03-07T04:25:06;31.80;;;14.43;;
79454;SDS011;68900;52.134;5.420;2024-03-07T04:27:33;34.40;;;14.75;;
79454;SDS011;68900;52.134;5.420;2024-03-07T04:30:07;29.13;;;13.88;;
79454;SDS011;68900;52.134;5.420;2024-03-07T04:32:37;30.83;;;14.18;;
79454;SDS011;68900;52.134;5.420;2024-03-07T04:35:08;33.33;;;14.52;;
79454;SDS011;68900;52.134;5.420;2024-03-07T04:37:37;32.75;;;14.95;;
79454;SDS011;68900;52.134;5.420;2024-03-07T04:40:04;29.13;;;13.57;;
79454;SDS011;68900;52.134;5.420;2024-03-07T04:42:47;29.15;;;13.38;;
79454;SDS011;68900;52.134;5.420;2024-03-07T04:45:15;30.58;;;14.25;;
79454;SDS011;68900;52.134;5.420;2024-03-07T04:47:43;33.88;;;13.85;;
79454;SDS011;68900;52.134;5.420;2024-03-07T04:50:15;33.55;;;13.93;;
79454;SDS011;68900;52.134;5.420;2024-03-07T04:52:46;28.90;;;13.82;;
79454;SDS011;68900;52.134;5.420;2024-03-07T04:55:16;31.98;;;13.65;;
79454;SDS011;68900;52.134;5.420;2024-03-07T04:57:43;31.15;;;13.80;;
79454;SDS011;68900;52.134;5.420;2024-03-07T05:02:44;27.98;;;12.45;;
79454;SDS011;68900;52.134;5.420;2024-03-07T05:05:13;28.08;;;13.07;;
79454;SDS011;68900;52.134;5.420;2024-03-07T05:07:41;28.77;;;14.32;;
79454;SDS011;68900;52.134;5.420;2024-03-07T05:10:07;28.73;;;13.23;;
79454;SDS011;68900;52.134;5.420;2024-03-07T05:12:35;27.83;;;13.85;;
79454;SDS011;68900;52.134;5.420;2024-03-07T05:15:03;32.92;;;14.18;;
79454;SDS011;68900;52.134;5.420;2024-03-07T05:17:31;29.92;;;14.20;;
79454;SDS011;68900;52.134;5.420;2024-03-07T05:20:01;29.20;;;13.90;;
79454;SDS011;68900;52.134;5.420;2024-03-07T05:22:27;28.67;;;13.93;;
79454;SDS011;68900;52.134;5.420;2024-03-07T05:24:56;33.90;;;15.07;;
79454;SDS011;68900;52.134;5.420;2024-03-07T05:27:25;30.48;;;14.95;;
79454;SDS011;68900;52.134;5.420;2024-03-07T05:29:54;27.33;;;13.55;;
79454;SDS011;68900;52.134;5.420;2024-03-07T05:32:23;29.83;;;13.13;;
79454;SDS011;68900;52.134;5.420;2024-03-07T05:34:50;32.58;;;15.40;;
79454;SDS011;68900;52.134;5.420;2024-03-07T05:37:17;30.42;;;13.18;;
79454;SDS011;68900;52.134;5.420;2024-03-07T05:39:43;33.60;;;13.95;;
79454;SDS011;68900;52.134;5.420;2024-03-07T05:59:20;32.35;;;13.80;;
79454;SDS011;68900;52.134;5.420;2024-03-07T06:01:48;29.70;;;13.48;;
79454;SDS011;68900;52.134;5.420;2024-03-07T06:04:14;31.15;;;14.40;;
79454;SDS011;68900;52.134;5.420;2024-03-07T06:06:41;31.15;;;15.00;;
79454;SDS011;68900;52.134;5.420;2024-03-07T06:09:08;29.95;;;13.18;;
79454;SDS011;68900;52.134;5.420;2024-03-07T06:11:36;31.73;;;15.60;;
79454;SDS011;68900;52.134;5.420;2024-03-07T06:14:04;30.50;;;14.32;;
79454;SDS011;68900;52.134;5.420;2024-03-07T06:16:35;37.38;;;15.00;;
79454;SDS011;68900;52.134;5.420;2024-03-07T06:19:05;35.05;;;15.13;;
79454;SDS011;68900;52.134;5.420;2024-03-07T06:21:37;35.33;;;14.85;;
79454;SDS011;68900;52.134;5.420;2024-03-07T06:24:08;33.85;;;15.13;;
79454;SDS011;68900;52.134;5.420;2024-03-07T06:26:38;32.15;;;15.30;;
79454;SDS011;68900;52.134;5.420;2024-03-07T06:29:12;32.00;;;14.85;;
79454;SDS011;68900;52.134;5.420;2024-03-07T06:31:43;28.30;;;13.98;;
79454;SDS011;68900;52.134;5.420;2024-03-07T06:34:16;33.20;;;14.85;;
79454;SDS011;68900;52.134;5.420;2024-03-07T06:36:44;34.30;;;14.90;;
79454;SDS011;68900;52.134;5.420;2024-03-07T06:39:11;31.73;;;14.48;;
79454;SDS011;68900;52.134;5.420;2024-03-07T06:41:39;31.58;;;14.82;;
79454;SDS011;68900;52.134;5.420;2024-03-07T06:44:06;36.90;;;15.05;;
79454;SDS011;68900;52.134;5.420;2024-03-07T06:49:03;34.50;;;15.48;;
79454;SDS011;68900;52.134;5.420;2024-03-07T06:51:39;33.80;;;15.77;;
79454;SDS011;68900;52.134;5.420;2024-03-07T06:54:06;30.70;;;14.90;;
79454;SDS011;68900;52.134;5.420;2024-03-07T06:56:37;35.95;;;15.63;;
79454;SDS011;68900;52.134;5.420;2024-03-07T06:59:03;32.40;;;15.68;;
79454;SDS011;68900;52.134;5.420;2024-03-07T07:01:31;40.05;;;16.70;;
79454;SDS011;68900;52.134;5.420;2024-03-07T07:03:58;36.72;;;17.40;;
79454;SDS011;68900;52.134;5.420;2024-03-07T07:06:28;33.78;;;15.88;;
79454;SDS011;68900;52.134;5.420;2024-03-07T07:08:54;33.30;;;16.35;;
79454;SDS011;68900;52.134;5.420;2024-03-07T07:11:21;34.40;;;14.88;;
79454;SDS011;68900;52.134;5.420;2024-03-07T07:13:48;34.72;;;16.40;;
79454;SDS011;68900;52.134;5.420;2024-03-07T07:16:14;33.50;;;16.17;;
79454;SDS011;68900;52.134;5.420;2024-03-07T07:18:42;33.63;;;15.60;;
79454;SDS011;68900;52.134;5.420;2024-03-07T07:21:09;34.38;;;15.75;;
79454;SDS011;68900;52.134;5.420;2024-03-07T07:23:37;34.53;;;16.38;;
79454;SDS011;68900;52.134;5.420;2024-03-07T07:26:06;34.15;;;15.77;;
79454;SDS011;68900;52.134;5.420;2024-03-07T07:40:43;32.95;;;14.70;;
79454;SDS011;68900;52.134;5.420;2024-03-07T07:43:11;35.45;;;15.57;;
79454;SDS011;68900;52.134;5.420;2024-03-07T07:45:51;28.52;;;13.57;;
79454;SDS011;68900;52.134;5.420;2024-03-07T07:48:17;29.08;;;14.02;;
79454;SDS011;68900;52.134;5.420;2024-03-07T07:50:46;30.10;;;14.60;;
79454;SDS011;68900;52.134;5.420;2024-03-07T07:55:53;28.67;;;12.32;;
79454;SDS011;68900;52.134;5.420;2024-03-07T07:58:39;30.45;;;13.75;;
79454;SDS011;68900;52.134;5.420;2024-03-07T08:01:06;26.60;;;13.15;;
79454;SDS011;68900;52.134;5.420;2024-03-07T08:03:36;28.35;;;14.35;;
79454;SDS011;68900;52.134;5.420;2024-03-07T08:06:03;29.05;;;13.02;;
79454;SDS011;68900;52.134;5.420;2024-03-07T08:08:30;28.08;;;13.55;;
79454;SDS011;68900;52.134;5.420;2024-03-07T08:10:56;30.45;;;13.05;;
79454;SDS011;68900;52.134;5.420;2024-03-07T08:13:23;32.72;;;13.70;;
79454;SDS011;68900;52.134;5.420;2024-03-07T08:15:51;28.83;;;13.27;;
79454;SDS011;68900;52.134;5.420;2024-03-07T08:18:20;28.95;;;12.93;;
79454;SDS011;68900;52.134;5.420;2024-03-07T08:20:47;29.50;;;14.15;;
79454;SDS011;68900;52.134;5.420;2024-03-07T08:23:14;28.42;;;13.25;;
79454;SDS011;68900;52.134;5.420;2024-03-07T08:25:40;22.65;;;11.68;;
79454;SDS011;68900;52.134;5.420;2024-03-07T08:28:07;19.38;;;9.75;;
79454;SDS011;68900;52.134;5.420;2024-03-07T08:30:34;25.90;;;12.32;;
79454;SDS011;68900;52.134;5.420;2024-03-07T08:33:03;27.58;;;12.77;;
79454;SDS011;68900;52.134;5.420;2024-03-07T08:35:32;29.17;;;13.30;;
79454;SDS011;68900;52.134;5.420;2024-03-07T08:37:59;23.67;;;12.63;;
79454;SDS011;68900;52.134;5.420;2024-03-07T08:46:25;25.77;;;12.10;;
79454;SDS011;68900;52.134;5.420;2024-03-07T08:48:53;25.60;;;11.65;;
79454;SDS011;68900;52.134;5.420;2024-03-07T08:51:23;23.17;;;11.25;;
79454;SDS011;68900;52.134;5.420;2024-03-07T08:53:49;21.52;;;10.68;;
79454;SDS011;68900;52.134;5.420;2024-03-07T08:56:16;21.13;;;9.65;;
79454;SDS011;68900;52.134;5.420;2024-03-07T08:58:43;23.35;;;11.65;;
79454;SDS011;68900;52.134;5.420;2024-03-07T09:01:09;19.40;;;10.23;;
79454;SDS011;68900;52.134;5.420;2024-03-07T09:03:36;21.33;;;11.15;;
79454;SDS011;68900;52.134;5.420;2024-03-07T09:06:04;22.30;;;10.65;;
79454;SDS011;68900;52.134;5.420;2024-03-07T09:08:31;20.60;;;9.27;;
79454;SDS011;68900;52.134;5.420;2024-03-07T09:10:58;20.63;;;10.55;;
79454;SDS011;68900;52.134;5.420;2024-03-07T09:13:27;18.15;;;9.73;;
79454;SDS011;68900;52.134;5.420;2024-03-07T09:15:54;18.17;;;9.98;;
79454;SDS011;68900;52.134;5.420;2024-03-07T09:18:20;21.75;;;10.65;;
79454;SDS011;68900;52.134;5.420;2024-03-07T09:20:49;15.82;;;8.38;;
79454;SDS011;68900;52.134;5.420;2024-03-07T09:23:15;18.58;;;10.20;;
79454;SDS011;68900;52.134;5.420;2024-03-07T09:25:42;21.30;;;9.90;;
79454;SDS011;68900;52.134;5.420;2024-03-07T09:28:09;19.55;;;9.30;;
79454;SDS011;68900;52.134;5.420;2024-03-07T09:30:38;20.08;;;9.10;;
79454;SDS011;68900;52.134;5.420;2024-03-07T09:33:07;17.10;;;8.23;;
79454;SDS011;68900;52.134;5.420;2024-03-07T09:35:37;16.48;;;8.75;;
79454;SDS011;68900;52.134;5.420;2024-03-07T09:38:05;16.58;;;8.00;;
79454;SDS011;68900;52.134;5.420;2024-03-07T09:40:32;23.80;;;9.30;;
79454;SDS011;68900;52.134;5.420;2024-03-07T09:43:04;18.55;;;9.32;;
79454;SDS011;68900;52.134;5.420;2024-03-07T09:45:36;17.35;;;9.38;;
79454;SDS011;68900;52.134;5.420;2024-03-07T09:48:13;19.90;;;9.95;;
79454;SDS011;68900;52.134;5.420;2024-03-07T09:50:46;16.88;;;9.32;;
79454;SDS011;68900;52.134;5.420;2024-03-07T10:03:26;18.98;;;9.45;;
79454;SDS011;68900;52.134;5.420;2024-03-07T10:05:55;21.25;;;9.13;;
79454;SDS011;68900;52.134;5.420;2024-03-07T10:08:37;20.42;;;8.88;;
79454;SDS011;68900;52.134;5.420;2024-03-07T10:11:27;20.13;;;10.40;;
79454;SDS011;68900;52.134;5.420;2024-03-07T10:14:31;19.65;;;9.63;;
79454;SDS011;68900;52.134;5.420;2024-03-07T10:17:02;18.85;;;8.38;;
79454;SDS011;68900;52.134;5.420;2024-03-07T10:19:30;20.10;;;9.95;;
79454;SDS011;68900;52.134;5.420;2024-03-07T10:22:01;16.75;;;8.40;;
79454;SDS011;68900;52.134;5.420;2024-03-07T10:24:30;19.48;;;9.65;;
79454;SDS011;68900;52.134;5.420;2024-03-07T10:26:59;19.70;;;9.55;;
79454;SDS011;68900;52.134;5.420;2024-03-07T10:29:27;19.17;;;8.77;;
79454;SDS011;68900;52.134;5.420;2024-03-07T10:31:53;18.65;;;9.35;;
79454;SDS011;68900;52.134;5.420;2024-03-07T10:34:33;17.17;;;9.00;;
79454;SDS011;68900;52.134;5.420;2024-03-07T10:37:00;17.48;;;8.38;;
79454;SDS011;68900;52.134;5.420;2024-03-07T10:39:30;19.13;;;9.05;;
79454;SDS011;68900;52.134;5.420;2024-03-07T10:42:00;20.15;;;8.85;;
79454;SDS011;68900;52.134;5.420;2024-03-07T10:44:32;18.85;;;8.48;;
79454;SDS011;68900;52.134;5.420;2024-03-07T10:47:07;19.13;;;9.73;;
79454;SDS011;68900;52.134;5.420;2024-03-07T10:49:37;17.88;;;9.50;;
79454;SDS011;68900;52.134;5.420;2024-03-07T10:52:13;14.82;;;7.88;;
79454;SDS011;68900;52.134;5.420;2024-03-07T10:54:55;18.88;;;8.75;;
79454;SDS011;68900;52.134;5.420;2024-03-07T10:57:49;17.40;;;8.20;;
79454;SDS011;68900;52.134;5.420;2024-03-07T11:02:56;18.60;;;8.43;;
79454;SDS011;68900;52.134;5.420;2024-03-07T11:05:25;21.30;;;9.07;;
79454;SDS011;68900;52.134;5.420;2024-03-07T11:07:56;14.98;;;7.25;;
79454;SDS011;68900;52.134;5.420;2024-03-07T11:10:30;19.13;;;9.13;;
79454;SDS011;68900;52.134;5.420;2024-03-07T11:12:58;21.45;;;9.73;;
79454;SDS011;68900;52.134;5.420;2024-03-07T11:15:26;18.27;;;8.60;;
79454;SDS011;68900;52.134;5.420;2024-03-07T11:17:54;16.58;;;7.28;;
79454;SDS011;68900;52.134;5.420;2024-03-07T11:20:25;17.70;;;8.57;;
79454;SDS011;68900;52.134;5.420;2024-03-07T11:22:55;18.65;;;8.90;;
79454;SDS011;68900;52.134;5.420;2024-03-07T11:25:22;17.42;;;8.98;;
79454;SDS011;68900;52.134;5.420;2024-03-07T11:27:52;17.45;;;8.10;;
79454;SDS011;68900;52.134;5.420;2024-03-07T11:30:22;16.88;;;9.07;;
79454;SDS011;68900;52.134;5.420;2024-03-07T11:32:49;15.45;;;7.38;;
79454;SDS011;68900;52.134;5.420;2024-03-07T11:35:20;19.30;;;9.80;;
79454;SDS011;68900;52.134;5.420;2024-03-07T11:38:00;18.00;;;8.55;;
79454;SDS011;68900;52.134;5.420;2024-03-07T11:40:53;20.88;;;9.68;;
79454;SDS011;68900;52.134;5.420;2024-03-07T11:43:28;18.98;;;9.18;;
79454;SDS011;68900;52.134;5.420;2024-03-07T11:45:54;21.20;;;8.15;;
79454;SDS011;68900;52.134;5.420;2024-03-07T11:48:24;16.95;;;8.40;;
79454;SDS011;68900;52.134;5.420;2024-03-07T11:58:09;17.80;;;7.95;;
79454;SDS011;68900;52.134;5.420;2024-03-07T12:01:04;20.73;;;9.18;;
79454;SDS011;68900;52.134;5.420;2024-03-07T12:07:06;15.10;;;8.05;;
79454;SDS011;68900;52.134;5.420;2024-03-07T12:09:39;16.88;;;7.80;;
79454;SDS011;68900;52.134;5.420;2024-03-07T12:12:06;14.95;;;6.95;;
79454;SDS011;68900;52.134;5.420;2024-03-07T12:14:33;16.45;;;8.82;;
79454;SDS011;68900;52.134;5.420;2024-03-07T12:17:03;18.27;;;7.88;;
79454;SDS011;68900;52.134;5.420;2024-03-07T12:19:32;17.33;;;7.88;;
79454;SDS011;68900;52.134;5.420;2024-03-07T12:22:00;17.48;;;8.73;;
79454;SDS011;68900;52.134;5.420;2024-03-07T12:24:29;18.05;;;8.10;;
79454;SDS011;68900;52.134;5.420;2024-03-07T12:27:08;17.10;;;7.85;;
79454;SDS011;68900;52.134;5.420;2024-03-07T12:29:40;18.38;;;9.23;;
79454;SDS011;68900;52.134;5.420;2024-03-07T12:32:06;20.05;;;8.82;;
79454;SDS011;68900;52.134;5.420;2024-03-07T12:34:45;17.50;;;8.30;;
79454;SDS011;68900;52.134;5.420;2024-03-07T12:37:13;16.08;;;8.93;;
79454;SDS011;68900;52.134;5.420;2024-03-07T12:39:43;17.92;;;8.63;;
79454;SDS011;68900;52.134;5.420;2024-03-07T12:42:27;17.88;;;8.45;;
79454;SDS011;68900;52.134;5.420;2024-03-07T12:44:55;19.13;;;8.40;;
79454;SDS011;68900;52.134;5.420;2024-03-07T12:47:22;16.23;;;7.72;;
79454;SDS011;68900;52.134;5.420;2024-03-07T12:49:52;15.85;;;8.38;;
79454;SDS011;68900;52.134;5.420;2024-03-07T12:52:18;16.40;;;7.97;;
79454;SDS011;68900;52.134;5.420;2024-03-07T12:54:45;14.05;;;6.55;;
79454;SDS011;68900;52.134;5.420;2024-03-07T12:57:13;13.77;;;7.00;;
79454;SDS011;68900;52.134;5.420;2024-03-07T12:59:39;18.42;;;8.90;;
79454;SDS011;68900;52.134;5.420;2024-03-07T13:02:10;18.60;;;8.88;;
79454;SDS011;68900;52.134;5.420;2024-03-07T13:04:38;15.60;;;8.00;;
79454;SDS011;68900;52.134;5.420;2024-03-07T13:07:09;16.33;;;8.63;;
79454;SDS011;68900;52.134;5.420;2024-03-07T13:09:36;16.40;;;8.20;;
79454;SDS011;68900;52.134;5.420;2024-03-07T13:12:07;19.35;;;8.68;;
79454;SDS011;68900;52.134;5.420;2024-03-07T13:14:36;18.15;;;8.02;;
79454;SDS011;68900;52.134;5.420;2024-03-07T13:17:03;17.02;;;9.05;;
79454;SDS011;68900;52.134;5.420;2024-03-07T13:19:30;18.02;;;7.57;;
79454;SDS011;68900;52.134;5.420;2024-03-07T13:21:58;16.33;;;7.15;;
79454;SDS011;68900;52.134;5.420;2024-03-07T13:24:28;18.98;;;9.38;;
79454;SDS011;68900;52.134;5.420;2024-03-07T13:26:54;17.48;;;7.47;;
79454;SDS011;68900;52.134;5.420;2024-03-07T13:29:23;20.45;;;8.45;;
79454;SDS011;68900;52.134;5.420;2024-03-07T13:31:54;18.40;;;8.65;;
79454;SDS011;68900;52.134;5.420;2024-03-07T13:34:23;14.93;;;8.05;;
79454;SDS011;68900;52.134;5.420;2024-03-07T13:36:52;16.48;;;7.47;;
79454;SDS011;68900;52.134;5.420;2024-03-07T13:39:18;17.90;;;8.60;;
79454;SDS011;68900;52.134;5.420;2024-03-07T13:41:49;15.57;;;8.50;;
79454;SDS011;68900;52.134;5.420;2024-03-07T13:44:16;16.83;;;8.48;;
79454;SDS011;68900;52.134;5.420;2024-03-07T13:46:45;15.48;;;8.00;;
79454;SDS011;68900;52.134;5.420;2024-03-07T13:49:12;17.45;;;9.18;;
79454;SDS011;68900;52.134;5.420;2024-03-07T13:51:44;17.98;;;8.75;;
79454;SDS011;68900;52.134;5.420;2024-03-07T13:54:17;17.30;;;8.88;;
79454;SDS011;68900;52.134;5.420;2024-03-07T13:57:04;16.23;;;8.73;;
79454;SDS011;68900;52.134;5.420;2024-03-07T14:11:10;15.52;;;8.38;;
79454;SDS011;68900;52.134;5.420;2024-03-07T14:17:03;14.20;;;7.10;;
79454;SDS011;68900;52.134;5.420;2024-03-07T14:23:10;8.23;;;4.15;;
79454;SDS011;68900;52.134;5.420;2024-03-07T14:31:06;15.95;;;8.38;;
79454;SDS011;68900;52.134;5.420;2024-03-07T14:33:54;14.15;;;7.13;;
79454;SDS011;68900;52.134;5.420;2024-03-07T14:36:37;14.52;;;8.05;;
79454;SDS011;68900;52.134;5.420;2024-03-07T14:39:07;17.23;;;8.95;;
79454;SDS011;68900;52.134;5.420;2024-03-07T14:41:50;15.45;;;7.55;;
79454;SDS011;68900;52.134;5.420;2024-03-07T14:44:21;15.98;;;8.43;;
79454;SDS011;68900;52.134;5.420;2024-03-07T14:46:56;16.85;;;8.05;;
79454;SDS011;68900;52.134;5.420;2024-03-07T14:49:26;15.35;;;8.73;;
79454;SDS011;68900;52.134;5.420;2024-03-07T14:51:53;15.05;;;8.82;;
79454;SDS011;68900;52.134;5.420;2024-03-07T14:54:26;14.77;;;7.82;;
79454;SDS011;68900;52.134;5.420;2024-03-07T14:56:53;14.68;;;7.68;;
79454;SDS011;68900;52.134;5.420;2024-03-07T14:59:26;14.80;;;7.50;;
79454;SDS011;68900;52.134;5.420;2024-03-07T15:01:59;15.25;;;8.48;;
79454;SDS011;68900;52.134;5.420;2024-03-07T15:04:29;15.55;;;7.97;;
79454;SDS011;68900;52.134;5.420;2024-03-07T15:06:59;14.18;;;8.20;;
79454;SDS011;68900;52.134;5.420;2024-03-07T15:09:28;14.32;;;7.47;;
79454;SDS011;68900;52.134;5.420;2024-03-07T15:11:56;15.80;;;7.70;;
79454;SDS011;68900;52.134;5.420;2024-03-07T15:14:23;13.73;;;7.85;;
79454;SDS011;68900;52.134;5.420;2024-03-07T15:17:03;16.17;;;8.45;;
79454;SDS011;68900;52.134;5.420;2024-03-07T15:19:32;14.40;;;7.68;;
79454;SDS011;68900;52.134;5.420;2024-03-07T15:22:01;16.52;;;8.00;;
79454;SDS011;68900;52.134;5.420;2024-03-07T15:24:31;13.60;;;7.90;;
79454;SDS011;68900;52.134;5.420;2024-03-07T15:27:03;13.95;;;8.10;;
79454;SDS011;68900;52.134;5.420;2024-03-07T15:29:31;16.42;;;8.80;;
79454;SDS011;68900;52.134;5.420;2024-03-07T15:31:57;17.15;;;8.70;;
79454;SDS011;68900;52.134;5.420;2024-03-07T15:34:28;14.52;;;8.23;;
79454;SDS011;68900;52.134;5.420;2024-03-07T15:37:03;18.35;;;9.45;;
79454;SDS011;68900;52.134;5.420;2024-03-07T15:39:30;16.35;;;8.82;;
79454;SDS011;68900;52.134;5.420;2024-03-07T15:41:57;16.13;;;7.35;;
79454;SDS011;68900;52.134;5.420;2024-03-07T15:44:32;15.00;;;8.30;;
79454;SDS011;68900;52.134;5.420;2024-03-07T15:47:01;11.63;;;6.82;;
79454;SDS011;68900;52.134;5.420;2024-03-07T15:49:27;13.50;;;6.90;;
79454;SDS011;68900;52.134;5.420;2024-03-07T15:51:53;15.63;;;8.68;;
79454;SDS011;68900;52.134;5.420;2024-03-07T15:54:20;15.40;;;7.82;;
79454;SDS011;68900;52.134;5.420;2024-03-07T15:56:50;18.50;;;8.95;;
79454;SDS011;68900;52.134;5.420;2024-03-07T15:59:19;16.58;;;9.07;;
79454;SDS011;68900;52.134;5.420;2024-03-07T16:01:49;17.05;;;9.32;;
79454;SDS011;68900;52.134;5.420;2024-03-07T16:04:16;15.55;;;8.80;;
79454;SDS011;68900;52.134;5.420;2024-03-07T16:06:44;15.90;;;8.73;;
79454;SDS011;68900;52.134;5.420;2024-03-07T16:09:11;16.33;;;9.30;;
79454;SDS011;68900;52.134;5.420;2024-03-07T16:11:40;18.60;;;8.93;;